Archon Michail — SVA7823 — position and weather

sailwx.info

Track history (hours):
 
Tides and Currents Weather Stations Pressure Air Temp Water Temp Dewpoint Dewpoint Depression Visibility Wind Speed Wind Dir Waves Ship Positions

Archon Michail

Last reported at 2017-Oct-18 10:59 UTC. Time now 2017-Oct-18 11:21 UTC.
Position N 37°57' E 023°35'.

Length 65 m; draft 3 m.

Type: Ship (hazmat cat A). MMSI: 240043800.

Date/timePositionNaut miles runAvg speedWind from/ knotsBaromVisibWave heightAir tempDewpointWater temp
2017-Oct-18 10:59N 37°57' E 023°35'0 0.0
2017-Oct-18 10:30N 37°57' E 023°35'0 0.0
2017-Oct-18 09:59N 37°57' E 023°35'0 0.0
2017-Oct-18 09:26N 37°57' E 023°35'0 0.0
2017-Oct-18 08:59N 37°57' E 023°35'0 0.0
2017-Oct-18 08:30N 37°57' E 023°35'0 0.0
2017-Oct-18 07:59N 37°57' E 023°35'0 0.1
2017-Oct-18 07:26N 37°57' E 023°35'0 0.0
2017-Oct-18 06:59N 37°57' E 023°35'0 0.1
2017-Oct-18 06:29N 37°57' E 023°35'0 0.0
2017-Oct-18 05:59N 37°57' E 023°35'0 0.1
2017-Oct-18 05:26N 37°57' E 023°35'1 1.7
2017-Oct-18 04:58N 37°57' E 023°34'1 1.8
2017-Oct-18 04:30N 37°57' E 023°33'4 7.2
2017-Oct-18 04:00N 38°01' E 023°32'1 1.3
2017-Oct-18 03:25N 38°01' E 023°31'0 0.0
2017-Oct-18 02:58N 38°01' E 023°31'0 0.0
2017-Oct-18 02:28N 38°01' E 023°31'1 0.1
2017-Oct-17 18:56N 38°02' E 023°31'1 1.3
2017-Oct-17 18:31N 38°02' E 023°31'0 0.2
2017-Oct-17 17:23N 38°01' E 023°31'0 0.0
2017-Oct-17 16:52N 38°01' E 023°31'0 0.0
2017-Oct-17 16:28N 38°01' E 023°31'2 4.5
2017-Oct-17 16:01N 37°60' E 023°33'3 5.5
2017-Oct-17 15:30N 37°57' E 023°34'3 0.7
2017-Oct-17 11:17N 37°56' E 023°38'0 0.1
2017-Oct-17 10:55N 37°56' E 023°38'0 0.0
2017-Oct-17 07:28N 37°56' E 023°38'0 0.0
2017-Oct-17 06:34N 37°56' E 023°38'0 0.6
2017-Oct-17 06:29N 37°56' E 023°38'0 0.1
2017-Oct-17 05:59N 37°56' E 023°38'2 3.6
2017-Oct-17 05:30N 37°57' E 023°36'0 0.7
2017-Oct-17 04:52N 37°58' E 023°37'0 0.0
2017-Oct-17 04:29N 37°58' E 023°37'0 0.0
2017-Oct-17 03:55N 37°58' E 023°37'0 0.0
2017-Oct-17 03:10N 37°58' E 023°37'0 0.0
2017-Oct-17 02:59N 37°58' E 023°37'0 0.0
2017-Oct-17 02:29N 37°58' E 023°37'0 0.0
2017-Oct-17 01:58N 37°58' E 023°37'0 0.0
2017-Oct-17 01:29N 37°58' E 023°37'0 0.0
2017-Oct-17 00:58N 37°58' E 023°37'0 0.0
2017-Oct-17 00:28N 37°58' E 023°37'0 0.0
2017-Oct-16 23:58N 37°58' E 023°37'0 0.0
2017-Oct-16 23:22N 37°58' E 023°37'0 0.0
2017-Oct-16 22:52N 37°58' E 023°37'0 0.0
2017-Oct-16 22:28N 37°58' E 023°37'0 0.0
2017-Oct-16 21:59N 37°58' E 023°37'0 0.0
2017-Oct-16 21:28N 37°58' E 023°37'0 0.0
2017-Oct-16 20:56N 37°58' E 023°37'0 0.0
2017-Oct-16 20:29N 37°58' E 023°37'0 0.4
2017-Oct-16 19:58N 37°57' E 023°36'3 5.9
2017-Oct-16 19:30N 37°58' E 023°33'3 7.0
2017-Oct-16 19:00N 38°01' E 023°32'1 0.2
2017-Oct-16 10:12N 38°02' E 023°31'1 5.4
2017-Oct-16 10:00N 38°01' E 023°32'3 6.8
2017-Oct-16 09:31N 37°58' E 023°33'4 7.3
2017-Oct-16 09:00N 37°56' E 023°37'1 1.8
2017-Oct-16 08:30N 37°56' E 023°38'0 0.0
2017-Oct-16 08:00N 37°56' E 023°38'0 0.0
2017-Oct-16 07:30N 37°56' E 023°38'0 0.0
2017-Oct-16 06:58N 37°56' E 023°38'0 0.0
2017-Oct-16 06:30N 37°56' E 023°38'0 0.0
2017-Oct-16 06:00N 37°56' E 023°38'1 1.7
2017-Oct-16 05:30N 37°56' E 023°37'2 4.9
2017-Oct-16 05:00N 37°57' E 023°34'3 6.0
2017-Oct-16 04:30N 38°00' E 023°33'2 0.4
2017-Oct-15 21:48N 38°02' E 023°36'1 0.2
2017-Oct-15 19:04N 38°01' E 023°35'0 4.5
2017-Oct-15 19:00N 38°01' E 023°35'4 7.2
2017-Oct-15 18:30N 37°58' E 023°33'3 5.6
2017-Oct-15 18:00N 37°55' E 023°34'4 7.3
2017-Oct-15 17:30N 37°52' E 023°32'1 1.4
2017-Oct-15 16:46N 37°51' E 023°32'0 0.1
2017-Oct-15 16:13N 37°51' E 023°32'0 0.1
2017-Oct-15 15:40N 37°51' E 023°32'0 0.4
2017-Oct-15 15:28N 37°51' E 023°31'0 0.4
2017-Oct-15 15:00N 37°51' E 023°31'7 7.4
2017-Oct-15 14:00N 37°58' E 023°37'0 0.2
2017-Oct-15 13:27N 37°58' E 023°37'0 0.0
2017-Oct-15 12:58N 37°58' E 023°37'1 1.8
2017-Oct-15 12:28N 37°57' E 023°36'2 3.2
2017-Oct-15 11:58N 37°56' E 023°38'0 0.0
2017-Oct-15 11:28N 37°56' E 023°38'0 0.0
2017-Oct-15 10:58N 37°56' E 023°38'0 0.0
2017-Oct-15 10:28N 37°56' E 023°38'0 0.0
2017-Oct-15 09:59N 37°56' E 023°38'0 0.0
2017-Oct-15 09:28N 37°56' E 023°38'0 0.0
2017-Oct-15 08:59N 37°56' E 023°38'0 0.0
2017-Oct-15 08:28N 37°56' E 023°38'0 0.0
2017-Oct-15 07:58N 37°56' E 023°38'0 0.0
2017-Oct-15 07:26N 37°56' E 023°38'0 0.0
2017-Oct-15 06:58N 37°56' E 023°38'0 0.0
2017-Oct-15 06:28N 37°56' E 023°38'0 0.0
2017-Oct-15 05:58N 37°56' E 023°38'0 0.0
2017-Oct-15 05:28N 37°56' E 023°38'2 4.0
2017-Oct-15 05:01N 37°57' E 023°36'1 1.7
2017-Oct-15 04:28N 37°58' E 023°37'0 0.0
2017-Oct-15 03:58N 37°58' E 023°37'0 0.0
2017-Oct-15 03:28N 37°58' E 023°37'0 0.0
2017-Oct-15 02:58N 37°58' E 023°37'0 0.0
2017-Oct-15 02:28N 37°58' E 023°37'0 0.0
2017-Oct-15 01:58N 37°58' E 023°37'0 0.0
2017-Oct-15 01:29N 37°58' E 023°37'0 0.0
2017-Oct-15 00:58N 37°58' E 023°37'0 0.0
2017-Oct-15 00:28N 37°58' E 023°37'0 0.0
2017-Oct-14 23:59N 37°58' E 023°37'0 0.0
2017-Oct-14 23:28N 37°58' E 023°37'0 0.0
2017-Oct-14 22:55N 37°58' E 023°37'0 0.0
2017-Oct-14 22:28N 37°58' E 023°37'0 0.0
2017-Oct-14 21:59N 37°58' E 023°37'0 0.0
2017-Oct-14 21:28N 37°58' E 023°37'0 0.0
2017-Oct-14 20:58N 37°58' E 023°37'0 0.0
2017-Oct-14 20:29N 37°58' E 023°37'0 0.0
2017-Oct-14 19:58N 37°58' E 023°37'0 0.0
2017-Oct-14 19:28N 37°58' E 023°37'2 3.6
2017-Oct-14 19:00N 37°57' E 023°35'2 2.7
2017-Oct-14 18:25N 37°55' E 023°34'0 0.0
2017-Oct-14 17:58N 37°55' E 023°34'0 0.1
2017-Oct-14 17:25N 37°55' E 023°34'0 0.5
2017-Oct-14 16:58N 37°55' E 023°34'0 0.2
2017-Oct-14 16:31N 37°55' E 023°34'3 5.4
2017-Oct-14 16:01N 37°57' E 023°36'1 1.4
2017-Oct-14 15:27N 37°58' E 023°37'0 0.0
2017-Oct-14 15:00N 37°58' E 023°37'0 0.0
2017-Oct-14 14:30N 37°58' E 023°37'0 0.0
2017-Oct-14 14:00N 37°58' E 023°37'0 0.0
2017-Oct-14 13:27N 37°58' E 023°37'0 0.0
2017-Oct-14 12:57N 37°58' E 023°37'0 0.0
2017-Oct-14 12:27N 37°58' E 023°37'0 0.0
2017-Oct-14 11:54N 37°58' E 023°37'0 0.0
2017-Oct-14 11:27N 37°58' E 023°37'2 3.9
2017-Oct-14 11:01N 37°57' E 023°35'3 6.2
2017-Oct-14 10:31N 37°60' E 023°33'3 0.7
2017-Oct-14 06:52N 38°02' E 023°35'0 0.1
2017-Oct-14 04:40N 38°02' E 023°35'1 5.7
2017-Oct-14 04:30N 38°01' E 023°34'3 6.7
2017-Oct-14 04:00N 37°58' E 023°33'3 5.6
2017-Oct-14 03:29N 37°57' E 023°37'0 0.1
2017-Oct-14 02:59N 37°58' E 023°37'0 0.0
2017-Oct-14 02:29N 37°58' E 023°37'0 0.0
2017-Oct-14 01:59N 37°58' E 023°37'0 0.0
2017-Oct-14 01:29N 37°58' E 023°37'0 0.0
2017-Oct-14 00:59N 37°58' E 023°37'0 0.0
2017-Oct-14 00:29N 37°58' E 023°37'0 0.0
2017-Oct-13 23:59N 37°58' E 023°37'0 0.0
2017-Oct-13 23:30N 37°58' E 023°37'0 0.0
2017-Oct-13 22:59N 37°58' E 023°37'0 0.0
2017-Oct-13 22:29N 37°58' E 023°37'0 0.0
2017-Oct-13 21:59N 37°58' E 023°37'0 0.0
2017-Oct-13 21:29N 37°58' E 023°37'0 0.0
2017-Oct-13 20:59N 37°58' E 023°37'0 0.0
2017-Oct-13 20:29N 37°58' E 023°37'0 0.0
2017-Oct-13 19:59N 37°58' E 023°37'0 0.0
2017-Oct-13 19:30N 37°58' E 023°37'0 0.0
2017-Oct-13 19:00N 37°58' E 023°37'0 0.0
2017-Oct-13 18:30N 37°58' E 023°37'0 0.0
2017-Oct-13 17:59N 37°58' E 023°37'0 0.0
2017-Oct-13 17:29N 37°58' E 023°37'0 0.0
2017-Oct-13 16:59N 37°58' E 023°37'0 0.0
2017-Oct-13 16:30N 37°58' E 023°37'0 0.0
2017-Oct-13 15:59N 37°58' E 023°37'0 0.0
2017-Oct-13 15:25N 37°58' E 023°37'0 0.0
2017-Oct-13 14:59N 37°58' E 023°37'0 0.0
2017-Oct-13 14:29N 37°58' E 023°37'0 0.0
2017-Oct-13 14:00N 37°58' E 023°37'0 0.0
2017-Oct-13 13:30N 37°58' E 023°37'0 0.0
2017-Oct-13 12:53N 37°58' E 023°37'0 0.2
2017-Oct-13 12:29N 37°58' E 023°37'1 1.7
2017-Oct-13 11:57N 37°57' E 023°36'2 3.6
2017-Oct-13 11:30N 37°57' E 023°38'0 0.0
2017-Oct-13 10:59N 37°57' E 023°38'0 0.0
2017-Oct-13 10:30N 37°57' E 023°38'0 0.0
2017-Oct-13 09:59N 37°57' E 023°38'0 0.0
2017-Oct-13 09:29N 37°57' E 023°38'0 0.0
2017-Oct-13 08:59N 37°57' E 023°38'0 0.0
2017-Oct-13 08:29N 37°57' E 023°38'0 0.7
2017-Oct-13 07:55N 37°56' E 023°38'0 0.0
2017-Oct-13 07:26N 37°56' E 023°38'0 0.0
2017-Oct-13 06:58N 37°56' E 023°38'0 0.0
2017-Oct-13 06:25N 37°56' E 023°38'0 0.1
2017-Oct-13 05:53N 37°56' E 023°38'2 5.5
2017-Oct-13 05:30N 37°57' E 023°35'3 6.4
2017-Oct-13 05:00N 37°59' E 023°33'2 2.8
2017-Oct-13 04:09N 38°01' E 023°31'0 0.1
2017-Oct-13 03:51N 38°01' E 023°31'0 0.1
2017-Oct-13 03:27N 38°01' E 023°31'0 0.0
2017-Oct-13 02:58N 38°01' E 023°31'0 0.0
2017-Oct-13 01:52N 38°01' E 023°31'0 0.1
2017-Oct-13 01:23N 38°01' E 023°31'0 0.0
2017-Oct-12 23:53N 38°01' E 023°31'0 0.0
2017-Oct-12 23:28N 38°01' E 023°31'0 0.0
2017-Oct-12 23:00N 38°01' E 023°31'0 0.0
2017-Oct-12 22:23N 38°01' E 023°31'0 0.1
2017-Oct-12 21:50N 38°01' E 023°31'1 0.1
2017-Oct-12 15:07N 38°02' E 023°31'0 1.7
2017-Oct-12 14:51N 38°02' E 023°31'0 0.2
2017-Oct-12 14:24N 38°02' E 023°31'3 6.6
2017-Oct-12 14:00N 37°59' E 023°33'3 6.5
2017-Oct-12 13:30N 37°57' E 023°35'2 4.5
2017-Oct-12 13:00N 37°56' E 023°38'0 0.0
2017-Oct-12 12:29N 37°56' E 023°38'0 0.0
2017-Oct-12 11:53N 37°56' E 023°38'0 0.0
2017-Oct-12 11:26N 37°56' E 023°38'0 0.0
2017-Oct-12 10:57N 37°56' E 023°38'0 0.0
2017-Oct-12 10:29N 37°56' E 023°38'0 0.0
2017-Oct-12 09:56N 37°56' E 023°38'0 0.0
2017-Oct-12 09:29N 37°56' E 023°38'0 0.5
2017-Oct-12 08:53N 37°57' E 023°38'0 0.0
2017-Oct-12 08:29N 37°57' E 023°38'0 0.0
2017-Oct-12 08:00N 37°57' E 023°38'0 0.0
2017-Oct-12 07:30N 37°57' E 023°38'0 0.0
2017-Oct-12 06:54N 37°57' E 023°38'0 0.0
2017-Oct-12 06:30N 37°57' E 023°38'0 0.0
2017-Oct-12 06:01N 37°57' E 023°38'0 0.2
2017-Oct-12 05:22N 37°57' E 023°38'2 6.5
2017-Oct-12 05:00N 37°57' E 023°35'3 5.8
2017-Oct-12 04:28N 37°59' E 023°33'2 3.7
2017-Oct-12 03:51N 38°01' E 023°31'0 0.0
2017-Oct-11 23:44N 38°01' E 023°31'0 0.0
2017-Oct-11 23:26N 38°01' E 023°31'0 0.0
2017-Oct-11 22:50N 38°01' E 023°31'0 0.0
2017-Oct-11 22:26N 38°01' E 023°31'0 0.0
2017-Oct-11 21:56N 38°01' E 023°31'6 0.3
2017-Oct-10 23:58N 37°58' E 023°37'0 0.0
2017-Oct-10 23:28N 37°58' E 023°37'0 0.0
2017-Oct-10 22:55N 37°58' E 023°37'0 0.0
2017-Oct-10 22:28N 37°58' E 023°37'0 0.0
2017-Oct-10 21:58N 37°58' E 023°37'0 0.0
2017-Oct-10 21:28N 37°58' E 023°37'0 0.0
2017-Oct-10 20:59N 37°58' E 023°37'0 0.0
2017-Oct-10 20:28N 37°58' E 023°37'0 0.0
2017-Oct-10 19:59N 37°58' E 023°37'0 0.0
2017-Oct-10 19:28N 37°58' E 023°37'0 0.0
2017-Oct-10 18:58N 37°58' E 023°37'0 0.0
2017-Oct-10 18:29N 37°58' E 023°37'0 0.0
2017-Oct-10 17:59N 37°58' E 023°37'0 0.0
2017-Oct-10 17:29N 37°58' E 023°37'0 0.0
2017-Oct-10 16:58N 37°58' E 023°37'0 0.0
2017-Oct-10 16:25N 37°58' E 023°37'0 0.9
2017-Oct-10 16:00N 37°57' E 023°36'4 7.6
2017-Oct-10 15:30N 37°55' E 023°33'2 4.1
2017-Oct-10 14:58N 37°53' E 023°31'0 0.0
2017-Oct-10 13:49N 37°53' E 023°31'0 0.0
2017-Oct-10 13:25N 37°53' E 023°31'0 0.0
2017-Oct-10 12:59N 37°53' E 023°31'0 0.0
2017-Oct-10 12:29N 37°53' E 023°31'0 0.0
2017-Oct-10 11:58N 37°53' E 023°31'0 0.5
2017-Oct-10 11:30N 37°53' E 023°31'4 7.1
2017-Oct-10 11:00N 37°55' E 023°35'3 5.2
2017-Oct-10 10:28N 37°56' E 023°38'0 0.0
2017-Oct-10 09:58N 37°56' E 023°38'0 0.0
2017-Oct-10 09:28N 37°56' E 023°38'0 0.0
2017-Oct-10 08:58N 37°56' E 023°38'0 0.0
2017-Oct-10 08:28N 37°56' E 023°38'0 0.0
2017-Oct-10 07:58N 37°56' E 023°38'0 0.0
2017-Oct-10 07:28N 37°56' E 023°38'0 0.0
2017-Oct-10 06:58N 37°56' E 023°38'0 0.0
2017-Oct-10 06:29N 37°56' E 023°38'0 0.0
2017-Oct-10 05:58N 37°56' E 023°38'0 0.0
2017-Oct-10 05:28N 37°56' E 023°38'1 1.3
2017-Oct-10 05:00N 37°56' E 023°37'3 5.5
2017-Oct-10 04:30N 37°57' E 023°34'3 6.1
2017-Oct-10 04:00N 38°00' E 023°33'2 0.4
2017-Oct-09 22:20N 38°02' E 023°35'1 0.1
2017-Oct-09 12:53N 38°02' E 023°36'1 1.7
2017-Oct-09 12:27N 38°01' E 023°35'3 6.8
2017-Oct-09 12:00N 37°59' E 023°33'4 7.2
2017-Oct-09 11:30N 37°57' E 023°36'1 1.5
2017-Oct-09 10:59N 37°56' E 023°38'0 0.0
2017-Oct-09 10:28N 37°56' E 023°38'0 0.0
2017-Oct-09 09:58N 37°56' E 023°38'0 0.0
2017-Oct-09 09:28N 37°56' E 023°38'0 0.0
2017-Oct-09 08:58N 37°56' E 023°38'0 0.7
2017-Oct-09 08:30N 37°56' E 023°38'0 0.0
2017-Oct-09 07:59N 37°56' E 023°38'0 0.0
2017-Oct-09 07:26N 37°56' E 023°38'0 0.0
2017-Oct-09 06:59N 37°56' E 023°38'0 0.0
2017-Oct-09 06:30N 37°56' E 023°38'0 0.0
2017-Oct-09 06:00N 37°56' E 023°38'1 2.4
2017-Oct-09 05:30N 37°57' E 023°36'1 1.8
2017-Oct-09 04:58N 37°58' E 023°37'0 0.0
2017-Oct-09 04:28N 37°58' E 023°37'0 0.0
2017-Oct-09 03:59N 37°58' E 023°37'0 0.0
2017-Oct-09 03:28N 37°58' E 023°37'0 0.0
2017-Oct-09 02:58N 37°58' E 023°37'0 0.0
2017-Oct-09 02:28N 37°58' E 023°37'0 0.0
2017-Oct-09 01:59N 37°58' E 023°37'0 0.0
2017-Oct-09 01:28N 37°58' E 023°37'1 2.4
2017-Oct-09 01:01N 37°57' E 023°35'2 4.3
2017-Oct-09 00:31N 37°55' E 023°34'1 1.8
2017-Oct-09 00:00N 37°54' E 023°34'0 0.1
2017-Oct-08 23:27N 37°54' E 023°34'0 0.0
2017-Oct-08 22:57N 37°54' E 023°34'0 0.0
2017-Oct-08 22:30N 37°54' E 023°34'0 0.0
2017-Oct-08 22:00N 37°54' E 023°34'0 0.0
2017-Oct-08 21:24N 37°54' E 023°34'0 0.6
2017-Oct-08 21:00N 37°54' E 023°34'3 6.3
2017-Oct-08 20:31N 37°57' E 023°36'1 1.5
2017-Oct-08 19:59N 37°58' E 023°37'0 0.0
2017-Oct-08 19:29N 37°58' E 023°37'0 0.0
2017-Oct-08 18:59N 37°58' E 023°37'0 0.0
2017-Oct-08 18:29N 37°58' E 023°37'0 0.0
2017-Oct-08 17:59N 37°58' E 023°37'0 0.0
2017-Oct-08 17:29N 37°58' E 023°37'0 0.0
2017-Oct-08 16:59N 37°58' E 023°37'0 0.0
2017-Oct-08 16:30N 37°58' E 023°37'0 0.0
2017-Oct-08 15:59N 37°58' E 023°37'0 0.0
2017-Oct-08 15:30N 37°58' E 023°37'0 0.0
2017-Oct-08 14:57N 37°58' E 023°37'0 0.0
2017-Oct-08 14:29N 37°58' E 023°37'0 0.0
2017-Oct-08 13:56N 37°58' E 023°37'0 0.0
2017-Oct-08 13:26N 37°58' E 023°37'0 0.0
2017-Oct-08 12:56N 37°58' E 023°37'0 0.0
2017-Oct-08 12:29N 37°58' E 023°37'0 0.0
2017-Oct-08 12:00N 37°58' E 023°37'1 2.5
2017-Oct-08 11:30N 37°56' E 023°37'  
Track history (hours):
 
Tides and Currents Weather Stations Pressure Air Temp Water Temp Dewpoint Dewpoint Depression Visibility Wind Speed Wind Dir Waves Ship Positions

Archon Michail

Last reported at 2017-Oct-18 10:59 UTC. Time now 2017-Oct-18 11:21 UTC.
Position N 37°57' E 023°35'.

Length 65 m; draft 3 m.

Type: Ship (hazmat cat A). MMSI: 240043800.

Date/timePositionNaut miles runAvg speedWind from/ knotsBaromVisibWave heightAir tempDewpointWater temp
2017-Oct-18 10:59N 37°57' E 023°35'0 0.0
2017-Oct-18 10:30N 37°57' E 023°35'0 0.0
2017-Oct-18 09:59N 37°57' E 023°35'0 0.0
2017-Oct-18 09:26N 37°57' E 023°35'0 0.0
2017-Oct-18 08:59N 37°57' E 023°35'0 0.0
2017-Oct-18 08:30N 37°57' E 023°35'0 0.0
2017-Oct-18 07:59N 37°57' E 023°35'0 0.1
2017-Oct-18 07:26N 37°57' E 023°35'0 0.0
2017-Oct-18 06:59N 37°57' E 023°35'0 0.1
2017-Oct-18 06:29N 37°57' E 023°35'0 0.0
2017-Oct-18 05:59N 37°57' E 023°35'0 0.1
2017-Oct-18 05:26N 37°57' E 023°35'1 1.7
2017-Oct-18 04:58N 37°57' E 023°34'1 1.8
2017-Oct-18 04:30N 37°57' E 023°33'4 7.2
2017-Oct-18 04:00N 38°01' E 023°32'1 1.3
2017-Oct-18 03:25N 38°01' E 023°31'0 0.0
2017-Oct-18 02:58N 38°01' E 023°31'0 0.0
2017-Oct-18 02:28N 38°01' E 023°31'1 0.1
2017-Oct-17 18:56N 38°02' E 023°31'1 1.3
2017-Oct-17 18:31N 38°02' E 023°31'0 0.2
2017-Oct-17 17:23N 38°01' E 023°31'0 0.0
2017-Oct-17 16:52N 38°01' E 023°31'0 0.0
2017-Oct-17 16:28N 38°01' E 023°31'2 4.5
2017-Oct-17 16:01N 37°60' E 023°33'3 5.5
2017-Oct-17 15:30N 37°57' E 023°34'3 0.7
2017-Oct-17 11:17N 37°56' E 023°38'0 0.1
2017-Oct-17 10:55N 37°56' E 023°38'0 0.0
2017-Oct-17 07:28N 37°56' E 023°38'0 0.0
2017-Oct-17 06:34N 37°56' E 023°38'0 0.6
2017-Oct-17 06:29N 37°56' E 023°38'0 0.1
2017-Oct-17 05:59N 37°56' E 023°38'2 3.6
2017-Oct-17 05:30N 37°57' E 023°36'0 0.7
2017-Oct-17 04:52N 37°58' E 023°37'0 0.0
2017-Oct-17 04:29N 37°58' E 023°37'0 0.0
2017-Oct-17 03:55N 37°58' E 023°37'0 0.0
2017-Oct-17 03:10N 37°58' E 023°37'0 0.0
2017-Oct-17 02:59N 37°58' E 023°37'0 0.0
2017-Oct-17 02:29N 37°58' E 023°37'0 0.0
2017-Oct-17 01:58N 37°58' E 023°37'0 0.0
2017-Oct-17 01:29N 37°58' E 023°37'0 0.0
2017-Oct-17 00:58N 37°58' E 023°37'0 0.0
2017-Oct-17 00:28N 37°58' E 023°37'0 0.0
2017-Oct-16 23:58N 37°58' E 023°37'0 0.0
2017-Oct-16 23:22N 37°58' E 023°37'0 0.0
2017-Oct-16 22:52N 37°58' E 023°37'0 0.0
2017-Oct-16 22:28N 37°58' E 023°37'0 0.0
2017-Oct-16 21:59N 37°58' E 023°37'0 0.0
2017-Oct-16 21:28N 37°58' E 023°37'0 0.0
2017-Oct-16 20:56N 37°58' E 023°37'0 0.0
2017-Oct-16 20:29N 37°58' E 023°37'0 0.4
2017-Oct-16 19:58N 37°57' E 023°36'3 5.9
2017-Oct-16 19:30N 37°58' E 023°33'3 7.0
2017-Oct-16 19:00N 38°01' E 023°32'1 0.2
2017-Oct-16 10:12N 38°02' E 023°31'1 5.4
2017-Oct-16 10:00N 38°01' E 023°32'3 6.8
2017-Oct-16 09:31N 37°58' E 023°33'4 7.3
2017-Oct-16 09:00N 37°56' E 023°37'1 1.8
2017-Oct-16 08:30N 37°56' E 023°38'0 0.0
2017-Oct-16 08:00N 37°56' E 023°38'0 0.0
2017-Oct-16 07:30N 37°56' E 023°38'0 0.0
2017-Oct-16 06:58N 37°56' E 023°38'0 0.0
2017-Oct-16 06:30N 37°56' E 023°38'0 0.0
2017-Oct-16 06:00N 37°56' E 023°38'1 1.7
2017-Oct-16 05:30N 37°56' E 023°37'2 4.9
2017-Oct-16 05:00N 37°57' E 023°34'3 6.0
2017-Oct-16 04:30N 38°00' E 023°33'2 0.4
2017-Oct-15 21:48N 38°02' E 023°36'1 0.2
2017-Oct-15 19:04N 38°01' E 023°35'0 4.5
2017-Oct-15 19:00N 38°01' E 023°35'4 7.2
2017-Oct-15 18:30N 37°58' E 023°33'3 5.6
2017-Oct-15 18:00N 37°55' E 023°34'4 7.3
2017-Oct-15 17:30N 37°52' E 023°32'1 1.4
2017-Oct-15 16:46N 37°51' E 023°32'0 0.1
2017-Oct-15 16:13N 37°51' E 023°32'0 0.1
2017-Oct-15 15:40N 37°51' E 023°32'0 0.4
2017-Oct-15 15:28N 37°51' E 023°31'0 0.4
2017-Oct-15 15:00N 37°51' E 023°31'7 7.4
2017-Oct-15 14:00N 37°58' E 023°37'0 0.2
2017-Oct-15 13:27N 37°58' E 023°37'0 0.0
2017-Oct-15 12:58N 37°58' E 023°37'1 1.8
2017-Oct-15 12:28N 37°57' E 023°36'2 3.2
2017-Oct-15 11:58N 37°56' E 023°38'0 0.0
2017-Oct-15 11:28N 37°56' E 023°38'0 0.0
2017-Oct-15 10:58N 37°56' E 023°38'0 0.0
2017-Oct-15 10:28N 37°56' E 023°38'0 0.0
2017-Oct-15 09:59N 37°56' E 023°38'0 0.0
2017-Oct-15 09:28N 37°56' E 023°38'0 0.0
2017-Oct-15 08:59N 37°56' E 023°38'0 0.0
2017-Oct-15 08:28N 37°56' E 023°38'0 0.0
2017-Oct-15 07:58N 37°56' E 023°38'0 0.0
2017-Oct-15 07:26N 37°56' E 023°38'0 0.0
2017-Oct-15 06:58N 37°56' E 023°38'0 0.0
2017-Oct-15 06:28N 37°56' E 023°38'0 0.0
2017-Oct-15 05:58N 37°56' E 023°38'0 0.0
2017-Oct-15 05:28N 37°56' E 023°38'2 4.0
2017-Oct-15 05:01N 37°57' E 023°36'1 1.7
2017-Oct-15 04:28N 37°58' E 023°37'0 0.0
2017-Oct-15 03:58N 37°58' E 023°37'0 0.0
2017-Oct-15 03:28N 37°58' E 023°37'0 0.0
2017-Oct-15 02:58N 37°58' E 023°37'0 0.0
2017-Oct-15 02:28N 37°58' E 023°37'0 0.0
2017-Oct-15 01:58N 37°58' E 023°37'0 0.0
2017-Oct-15 01:29N 37°58' E 023°37'0 0.0
2017-Oct-15 00:58N 37°58' E 023°37'0 0.0
2017-Oct-15 00:28N 37°58' E 023°37'0 0.0
2017-Oct-14 23:59N 37°58' E 023°37'0 0.0
2017-Oct-14 23:28N 37°58' E 023°37'0 0.0
2017-Oct-14 22:55N 37°58' E 023°37'0 0.0
2017-Oct-14 22:28N 37°58' E 023°37'0 0.0
2017-Oct-14 21:59N 37°58' E 023°37'0 0.0
2017-Oct-14 21:28N 37°58' E 023°37'0 0.0
2017-Oct-14 20:58N 37°58' E 023°37'0 0.0
2017-Oct-14 20:29N 37°58' E 023°37'0 0.0
2017-Oct-14 19:58N 37°58' E 023°37'0 0.0
2017-Oct-14 19:28N 37°58' E 023°37'2 3.6
2017-Oct-14 19:00N 37°57' E 023°35'2 2.7
2017-Oct-14 18:25N 37°55' E 023°34'0 0.0
2017-Oct-14 17:58N 37°55' E 023°34'0 0.1
2017-Oct-14 17:25N 37°55' E 023°34'0 0.5
2017-Oct-14 16:58N 37°55' E 023°34'0 0.2
2017-Oct-14 16:31N 37°55' E 023°34'3 5.4
2017-Oct-14 16:01N 37°57' E 023°36'1 1.4
2017-Oct-14 15:27N 37°58' E 023°37'0 0.0
2017-Oct-14 15:00N 37°58' E 023°37'0 0.0
2017-Oct-14 14:30N 37°58' E 023°37'0 0.0
2017-Oct-14 14:00N 37°58' E 023°37'0 0.0
2017-Oct-14 13:27N 37°58' E 023°37'0 0.0
2017-Oct-14 12:57N 37°58' E 023°37'0 0.0
2017-Oct-14 12:27N 37°58' E 023°37'0 0.0
2017-Oct-14 11:54N 37°58' E 023°37'0 0.0
2017-Oct-14 11:27N 37°58' E 023°37'2 3.9
2017-Oct-14 11:01N 37°57' E 023°35'3 6.2
2017-Oct-14 10:31N 37°60' E 023°33'3 0.7
2017-Oct-14 06:52N 38°02' E 023°35'0 0.1
2017-Oct-14 04:40N 38°02' E 023°35'1 5.7
2017-Oct-14 04:30N 38°01' E 023°34'3 6.7
2017-Oct-14 04:00N 37°58' E 023°33'3 5.6
2017-Oct-14 03:29N 37°57' E 023°37'0 0.1
2017-Oct-14 02:59N 37°58' E 023°37'0 0.0
2017-Oct-14 02:29N 37°58' E 023°37'0 0.0
2017-Oct-14 01:59N 37°58' E 023°37'0 0.0
2017-Oct-14 01:29N 37°58' E 023°37'0 0.0
2017-Oct-14 00:59N 37°58' E 023°37'0 0.0
2017-Oct-14 00:29N 37°58' E 023°37'0 0.0
2017-Oct-13 23:59N 37°58' E 023°37'0 0.0
2017-Oct-13 23:30N 37°58' E 023°37'0 0.0
2017-Oct-13 22:59N 37°58' E 023°37'0 0.0
2017-Oct-13 22:29N 37°58' E 023°37'0 0.0
2017-Oct-13 21:59N 37°58' E 023°37'0 0.0
2017-Oct-13 21:29N 37°58' E 023°37'0 0.0
2017-Oct-13 20:59N 37°58' E 023°37'0 0.0
2017-Oct-13 20:29N 37°58' E 023°37'0 0.0
2017-Oct-13 19:59N 37°58' E 023°37'0 0.0
2017-Oct-13 19:30N 37°58' E 023°37'0 0.0
2017-Oct-13 19:00N 37°58' E 023°37'0 0.0
2017-Oct-13 18:30N 37°58' E 023°37'0 0.0
2017-Oct-13 17:59N 37°58' E 023°37'0 0.0
2017-Oct-13 17:29N 37°58' E 023°37'0 0.0
2017-Oct-13 16:59N 37°58' E 023°37'0 0.0
2017-Oct-13 16:30N 37°58' E 023°37'0 0.0
2017-Oct-13 15:59N 37°58' E 023°37'0 0.0
2017-Oct-13 15:25N 37°58' E 023°37'0 0.0
2017-Oct-13 14:59N 37°58' E 023°37'0 0.0
2017-Oct-13 14:29N 37°58' E 023°37'0 0.0
2017-Oct-13 14:00N 37°58' E 023°37'0 0.0
2017-Oct-13 13:30N 37°58' E 023°37'0 0.0
2017-Oct-13 12:53N 37°58' E 023°37'0 0.2
2017-Oct-13 12:29N 37°58' E 023°37'1 1.7
2017-Oct-13 11:57N 37°57' E 023°36'2 3.6
2017-Oct-13 11:30N 37°57' E 023°38'0 0.0
2017-Oct-13 10:59N 37°57' E 023°38'0 0.0
2017-Oct-13 10:30N 37°57' E 023°38'0 0.0
2017-Oct-13 09:59N 37°57' E 023°38'0 0.0
2017-Oct-13 09:29N 37°57' E 023°38'0 0.0
2017-Oct-13 08:59N 37°57' E 023°38'0 0.0
2017-Oct-13 08:29N 37°57' E 023°38'0 0.7
2017-Oct-13 07:55N 37°56' E 023°38'0 0.0
2017-Oct-13 07:26N 37°56' E 023°38'0 0.0
2017-Oct-13 06:58N 37°56' E 023°38'0 0.0
2017-Oct-13 06:25N 37°56' E 023°38'0 0.1
2017-Oct-13 05:53N 37°56' E 023°38'2 5.5
2017-Oct-13 05:30N 37°57' E 023°35'3 6.4
2017-Oct-13 05:00N 37°59' E 023°33'2 2.8
2017-Oct-13 04:09N 38°01' E 023°31'0 0.1
2017-Oct-13 03:51N 38°01' E 023°31'0 0.1
2017-Oct-13 03:27N 38°01' E 023°31'0 0.0
2017-Oct-13 02:58N 38°01' E 023°31'0 0.0
2017-Oct-13 01:52N 38°01' E 023°31'0 0.1
2017-Oct-13 01:23N 38°01' E 023°31'0 0.0
2017-Oct-12 23:53N 38°01' E 023°31'0 0.0
2017-Oct-12 23:28N 38°01' E 023°31'0 0.0
2017-Oct-12 23:00N 38°01' E 023°31'0 0.0
2017-Oct-12 22:23N 38°01' E 023°31'0 0.1
2017-Oct-12 21:50N 38°01' E 023°31'1 0.1
2017-Oct-12 15:07N 38°02' E 023°31'0 1.7
2017-Oct-12 14:51N 38°02' E 023°31'0 0.2
2017-Oct-12 14:24N 38°02' E 023°31'3 6.6
2017-Oct-12 14:00N 37°59' E 023°33'3 6.5
2017-Oct-12 13:30N 37°57' E 023°35'2 4.5
2017-Oct-12 13:00N 37°56' E 023°38'0 0.0
2017-Oct-12 12:29N 37°56' E 023°38'0 0.0
2017-Oct-12 11:53N 37°56' E 023°38'0 0.0
2017-Oct-12 11:26N 37°56' E 023°38'0 0.0
2017-Oct-12 10:57N 37°56' E 023°38'0 0.0
2017-Oct-12 10:29N 37°56' E 023°38'0 0.0
2017-Oct-12 09:56N 37°56' E 023°38'0 0.0
2017-Oct-12 09:29N 37°56' E 023°38'0 0.5
2017-Oct-12 08:53N 37°57' E 023°38'0 0.0
2017-Oct-12 08:29N 37°57' E 023°38'0 0.0
2017-Oct-12 08:00N 37°57' E 023°38'0 0.0
2017-Oct-12 07:30N 37°57' E 023°38'0 0.0
2017-Oct-12 06:54N 37°57' E 023°38'0 0.0
2017-Oct-12 06:30N 37°57' E 023°38'0 0.0
2017-Oct-12 06:01N 37°57' E 023°38'0 0.2
2017-Oct-12 05:22N 37°57' E 023°38'2 6.5
2017-Oct-12 05:00N 37°57' E 023°35'3 5.8
2017-Oct-12 04:28N 37°59' E 023°33'2 3.7
2017-Oct-12 03:51N 38°01' E 023°31'0 0.0
2017-Oct-11 23:44N 38°01' E 023°31'0 0.0
2017-Oct-11 23:26N 38°01' E 023°31'0 0.0
2017-Oct-11 22:50N 38°01' E 023°31'0 0.0
2017-Oct-11 22:26N 38°01' E 023°31'0 0.0
2017-Oct-11 21:56N 38°01' E 023°31'6 0.3
2017-Oct-10 23:58N 37°58' E 023°37'0 0.0
2017-Oct-10 23:28N 37°58' E 023°37'0 0.0
2017-Oct-10 22:55N 37°58' E 023°37'0 0.0
2017-Oct-10 22:28N 37°58' E 023°37'0 0.0
2017-Oct-10 21:58N 37°58' E 023°37'0 0.0
2017-Oct-10 21:28N 37°58' E 023°37'0 0.0
2017-Oct-10 20:59N 37°58' E 023°37'0 0.0
2017-Oct-10 20:28N 37°58' E 023°37'0 0.0
2017-Oct-10 19:59N 37°58' E 023°37'0 0.0
2017-Oct-10 19:28N 37°58' E 023°37'0 0.0
2017-Oct-10 18:58N 37°58' E 023°37'0 0.0
2017-Oct-10 18:29N 37°58' E 023°37'0 0.0
2017-Oct-10 17:59N 37°58' E 023°37'0 0.0
2017-Oct-10 17:29N 37°58' E 023°37'0 0.0
2017-Oct-10 16:58N 37°58' E 023°37'0 0.0
2017-Oct-10 16:25N 37°58' E 023°37'0 0.9
2017-Oct-10 16:00N 37°57' E 023°36'4 7.6
2017-Oct-10 15:30N 37°55' E 023°33'2 4.1
2017-Oct-10 14:58N 37°53' E 023°31'0 0.0
2017-Oct-10 13:49N 37°53' E 023°31'0 0.0
2017-Oct-10 13:25N 37°53' E 023°31'0 0.0
2017-Oct-10 12:59N 37°53' E 023°31'0 0.0
2017-Oct-10 12:29N 37°53' E 023°31'0 0.0
2017-Oct-10 11:58N 37°53' E 023°31'0 0.5
2017-Oct-10 11:30N 37°53' E 023°31'4 7.1
2017-Oct-10 11:00N 37°55' E 023°35'3 5.2
2017-Oct-10 10:28N 37°56' E 023°38'0 0.0
2017-Oct-10 09:58N 37°56' E 023°38'0 0.0
2017-Oct-10 09:28N 37°56' E 023°38'0 0.0
2017-Oct-10 08:58N 37°56' E 023°38'0 0.0
2017-Oct-10 08:28N 37°56' E 023°38'0 0.0
2017-Oct-10 07:58N 37°56' E 023°38'0 0.0
2017-Oct-10 07:28N 37°56' E 023°38'0 0.0
2017-Oct-10 06:58N 37°56' E 023°38'0 0.0
2017-Oct-10 06:29N 37°56' E 023°38'0 0.0
2017-Oct-10 05:58N 37°56' E 023°38'0 0.0
2017-Oct-10 05:28N 37°56' E 023°38'1 1.3
2017-Oct-10 05:00N 37°56' E 023°37'3 5.5
2017-Oct-10 04:30N 37°57' E 023°34'3 6.1
2017-Oct-10 04:00N 38°00' E 023°33'2 0.4
2017-Oct-09 22:20N 38°02' E 023°35'1 0.1
2017-Oct-09 12:53N 38°02' E 023°36'1 1.7
2017-Oct-09 12:27N 38°01' E 023°35'3 6.8
2017-Oct-09 12:00N 37°59' E 023°33'4 7.2
2017-Oct-09 11:30N 37°57' E 023°36'1 1.5
2017-Oct-09 10:59N 37°56' E 023°38'0 0.0
2017-Oct-09 10:28N 37°56' E 023°38'0 0.0
2017-Oct-09 09:58N 37°56' E 023°38'0 0.0
2017-Oct-09 09:28N 37°56' E 023°38'0 0.0
2017-Oct-09 08:58N 37°56' E 023°38'0 0.7
2017-Oct-09 08:30N 37°56' E 023°38'0 0.0
2017-Oct-09 07:59N 37°56' E 023°38'0 0.0
2017-Oct-09 07:26N 37°56' E 023°38'0 0.0
2017-Oct-09 06:59N 37°56' E 023°38'0 0.0
2017-Oct-09 06:30N 37°56' E 023°38'0 0.0
2017-Oct-09 06:00N 37°56' E 023°38'1 2.4
2017-Oct-09 05:30N 37°57' E 023°36'1 1.8
2017-Oct-09 04:58N 37°58' E 023°37'0 0.0
2017-Oct-09 04:28N 37°58' E 023°37'0 0.0
2017-Oct-09 03:59N 37°58' E 023°37'0 0.0
2017-Oct-09 03:28N 37°58' E 023°37'0 0.0
2017-Oct-09 02:58N 37°58' E 023°37'0 0.0
2017-Oct-09 02:28N 37°58' E 023°37'0 0.0
2017-Oct-09 01:59N 37°58' E 023°37'0 0.0
2017-Oct-09 01:28N 37°58' E 023°37'1 2.4
2017-Oct-09 01:01N 37°57' E 023°35'2 4.3
2017-Oct-09 00:31N 37°55' E 023°34'1 1.8
2017-Oct-09 00:00N 37°54' E 023°34'0 0.1
2017-Oct-08 23:27N 37°54' E 023°34'0 0.0
2017-Oct-08 22:57N 37°54' E 023°34'0 0.0
2017-Oct-08 22:30N 37°54' E 023°34'0 0.0
2017-Oct-08 22:00N 37°54' E 023°34'0 0.0
2017-Oct-08 21:24N 37°54' E 023°34'0 0.6
2017-Oct-08 21:00N 37°54' E 023°34'3 6.3
2017-Oct-08 20:31N 37°57' E 023°36'1 1.5
2017-Oct-08 19:59N 37°58' E 023°37'0 0.0
2017-Oct-08 19:29N 37°58' E 023°37'0 0.0
2017-Oct-08 18:59N 37°58' E 023°37'0 0.0
2017-Oct-08 18:29N 37°58' E 023°37'0 0.0
2017-Oct-08 17:59N 37°58' E 023°37'0 0.0
2017-Oct-08 17:29N 37°58' E 023°37'0 0.0
2017-Oct-08 16:59N 37°58' E 023°37'0 0.0
2017-Oct-08 16:30N 37°58' E 023°37'0 0.0
2017-Oct-08 15:59N 37°58' E 023°37'0 0.0
2017-Oct-08 15:30N 37°58' E 023°37'0 0.0
2017-Oct-08 14:57N 37°58' E 023°37'0 0.0
2017-Oct-08 14:29N 37°58' E 023°37'0 0.0
2017-Oct-08 13:56N 37°58' E 023°37'0 0.0
2017-Oct-08 13:26N 37°58' E 023°37'0 0.0
2017-Oct-08 12:56N 37°58' E 023°37'0 0.0
2017-Oct-08 12:29N 37°58' E 023°37'0 0.0
2017-Oct-08 12:00N 37°58' E 023°37'1 2.5
2017-Oct-08 11:30N 37°56' E 023°37'  

Dump ship's entire track history